createdAt,value
2022-09-01T00:00:51.176Z,47.8
2022-09-01T00:06:09.664Z,47.9
2022-09-01T00:11:28.143Z,47.4
2022-09-01T00:16:52.290Z,47.6
2022-09-01T00:22:11.062Z,47
2022-09-01T00:27:31.726Z,47.4
2022-09-01T00:32:50.088Z,47
2022-09-01T00:38:08.580Z,47.2
2022-09-01T00:43:26.782Z,46.8
2022-09-01T00:48:45.264Z,46.7
2022-09-01T00:54:03.267Z,46.3
2022-09-01T00:59:22.027Z,46.9
2022-09-01T01:04:40.562Z,47.1
2022-09-01T01:09:59.280Z,46.5
2022-09-01T01:15:17.764Z,47.2
2022-09-01T01:20:36.521Z,46.9
2022-09-01T01:25:55.282Z,46.7
2022-09-01T01:31:13.768Z,46.3
2022-09-01T01:36:31.994Z,45.7
2022-09-01T01:41:50.763Z,46.8
2022-09-01T01:47:09.507Z,46.4
2022-09-01T01:52:29.773Z,46.3
2022-09-01T01:57:48.779Z,46.7
2022-09-01T02:03:07.545Z,46.9
2022-09-01T02:08:26.358Z,45.7
2022-09-01T02:13:44.624Z,46.2
2022-09-01T02:19:02.842Z,46.3
2022-09-01T02:24:21.037Z,47.2
2022-09-01T02:29:44.056Z,46.6
2022-09-01T02:35:02.241Z,46.3
2022-09-01T02:40:21.289Z,46.9
2022-09-01T02:45:39.512Z,46.2
2022-09-01T02:50:57.693Z,46.2
2022-09-01T02:56:15.895Z,46.1
2022-09-01T03:01:34.309Z,47.2
2022-09-01T03:06:52.336Z,46.9
2022-09-01T03:12:10.529Z,46.8
2022-09-01T03:17:29.020Z,46.6
2022-09-01T03:22:47.221Z,46.3
2022-09-01T03:28:05.997Z,46.2
2022-09-01T03:33:24.476Z,45.8
2022-09-01T03:38:42.953Z,46
2022-09-01T03:44:01.434Z,45.2
2022-09-01T03:49:19.906Z,44.6
2022-09-01T03:54:38.127Z,46.2
2022-09-01T03:59:56.604Z,45.1
2022-09-01T04:05:15.355Z,46.1
2022-09-01T04:10:34.118Z,45.7
2022-09-01T04:15:52.038Z,44.7
2022-09-01T04:21:10.799Z,45.5
2022-09-01T04:26:29.003Z,45.3
2022-09-01T04:31:47.137Z,44.9
2022-09-01T04:37:05.555Z,45.6
2022-09-01T04:42:24.491Z,45.8
2022-09-01T04:47:43.218Z,45.4
2022-09-01T04:53:01.420Z,46.2
2022-09-01T04:58:19.617Z,47.1
2022-09-01T05:03:38.113Z,46.6
2022-09-01T05:08:56.593Z,46.9
2022-09-01T05:14:15.066Z,47.9
2022-09-01T05:19:33.835Z,47.5
2022-09-01T05:24:56.179Z,47.5
2022-09-01T05:30:14.364Z,46.9
2022-09-01T05:35:33.370Z,47.3
2022-09-01T05:40:51.637Z,46.1
2022-09-01T05:46:10.578Z,46.8
2022-09-01T05:51:50.621Z,46.7
2022-09-01T05:57:35.526Z,47.3
2022-09-01T06:02:54.687Z,45.9
2022-09-01T06:08:12.868Z,47
2022-09-01T06:13:31.843Z,46
2022-09-01T06:18:55.864Z,46.7
2022-09-01T06:24:14.618Z,47
2022-09-01T06:29:33.103Z,47.1
2022-09-01T06:34:51.592Z,46.8
2022-09-01T06:40:10.703Z,47
2022-09-01T06:45:28.929Z,47.2
2022-09-01T06:51:21.553Z,46.6
2022-09-01T06:56:53.784Z,46.8
2022-09-01T07:02:18.797Z,47.5
2022-09-01T07:08:07.406Z,46.5
2022-09-01T07:13:25.296Z,46.8
2022-09-01T07:18:58.833Z,47.7
2022-09-01T07:24:16.816Z,47.6
2022-09-01T07:29:35.575Z,47.7
2022-09-01T07:34:56.352Z,46.7
2022-09-01T07:48:02.453Z,46.7
2022-09-01T07:53:21.694Z,47.4
2022-09-01T07:58:40.165Z,46.3
2022-09-01T08:03:58.389Z,46.3
2022-09-01T08:09:44.083Z,46.1
2022-09-01T08:16:07.354Z,47.2
2022-09-01T08:21:26.761Z,47.2
2022-09-01T08:26:44.969Z,45.9
2022-09-01T08:32:03.881Z,46.8
2022-09-01T08:37:22.630Z,46.9
2022-09-01T08:42:41.101Z,46.9
2022-09-01T08:49:25.580Z,46.3
2022-09-01T08:54:46.892Z,45.6
2022-09-01T09:00:06.246Z,46.8
2022-09-01T09:05:24.738Z,46.7
2022-09-01T09:10:43.496Z,46.7
2022-09-01T09:16:09.836Z,45.7
2022-09-01T09:21:29.902Z,45.6
2022-09-01T09:26:48.415Z,46.2
2022-09-01T09:32:22.983Z,44.5
2022-09-01T09:37:42.224Z,45.1
2022-09-01T09:43:02.554Z,45.2
2022-09-01T09:48:21.308Z,45.2
2022-09-01T09:53:40.049Z,45.6
2022-09-01T09:58:58.248Z,44.8
2022-09-01T10:04:16.517Z,44.4
2022-09-01T10:09:34.972Z,44.3
2022-09-01T10:14:53.993Z,43.5
2022-09-01T10:20:12.624Z,44.2
2022-09-01T10:25:33.426Z,43.9
2022-09-01T10:30:51.693Z,43.5
2022-09-01T10:36:10.145Z,43.7
2022-09-01T10:41:28.632Z,43.2
2022-09-01T10:46:58.814Z,43.6
2022-09-01T10:52:18.666Z,43.9
2022-09-01T10:57:43.123Z,42.9
2022-09-01T11:02:47.767Z,42.2
2022-09-01T11:08:26.306Z,41.7
2022-09-01T11:13:50.497Z,42.3
2022-09-01T11:19:16.746Z,41.6
2022-09-01T11:24:35.248Z,41.8
2022-09-01T11:29:56.039Z,41.9
2022-09-01T11:35:14.255Z,41.5
2022-09-01T11:40:33.250Z,41.8
2022-09-01T11:45:51.786Z,41
2022-09-01T11:51:15.773Z,40.6
2022-09-01T11:56:34.259Z,41.3
2022-09-01T12:01:53.018Z,41.3
2022-09-01T12:07:11.945Z,41.6
2022-09-01T12:12:30.433Z,42.1
2022-09-01T12:17:49.187Z,41.7
2022-09-01T12:23:07.661Z,42.8
2022-09-01T12:28:30.871Z,43.2
2022-09-01T12:33:50.403Z,42.9
2022-09-01T12:39:09.783Z,42.6
2022-09-01T12:44:28.687Z,42.5
2022-09-01T12:49:55.437Z,43.6
2022-09-01T12:55:46.986Z,43.1
2022-09-01T13:01:08.862Z,43.1
2022-09-01T13:06:34.569Z,43.2
2022-09-01T13:12:08.891Z,43.9
2022-09-01T13:17:27.363Z,44.1
2022-09-01T13:22:45.568Z,43.2
2022-09-01T13:28:03.760Z,43.8
2022-09-01T13:33:23.931Z,42.6
2022-09-01T13:38:42.111Z,42.8
2022-09-01T13:44:00.594Z,42.6
2022-09-01T13:50:15.566Z,42.1
2022-09-01T13:55:37.238Z,42.7
2022-09-01T14:00:56.111Z,42.3
2022-09-01T14:06:14.391Z,42.8
2022-09-01T14:11:32.591Z,42.6
2022-09-01T14:16:51.201Z,42.8
2022-09-01T14:22:09.400Z,44.4
2022-09-01T14:27:27.892Z,44.5
2022-09-01T14:32:46.099Z,44.5
2022-09-01T14:38:04.019Z,46.8
2022-09-01T14:43:22.235Z,47
2022-09-01T14:48:40.562Z,46.5
2022-09-01T14:53:59.134Z,46.8
2022-09-01T14:59:17.883Z,46.5
2022-09-01T15:04:36.536Z,46.8
2022-09-01T15:09:54.714Z,47.6
2022-09-01T15:15:13.197Z,47.5
2022-09-01T15:20:31.678Z,47.1
2022-09-01T15:25:50.148Z,47.3
2022-09-01T15:31:08.592Z,47.4
2022-09-01T15:36:26.768Z,47.8
2022-09-01T15:41:45.522Z,48.2
2022-09-01T15:47:04.431Z,48.1
2022-09-01T15:52:22.882Z,48.3
2022-09-01T15:57:41.649Z,47.9
2022-09-01T16:02:59.861Z,48.5
2022-09-01T16:08:18.365Z,47.5
2022-09-01T16:13:37.112Z,48.7
2022-09-01T16:18:55.591Z,48.6
2022-09-01T16:24:06.096Z,49.3
2022-09-01T16:29:24.636Z,48.3
2022-09-01T16:34:43.116Z,48.7
2022-09-01T16:40:01.602Z,49.3
2022-09-01T16:45:20.365Z,48.5
2022-09-01T16:50:38.849Z,49.9
2022-09-01T16:55:57.599Z,49.7
2022-09-01T17:01:16.665Z,49.6
2022-09-01T17:06:35.431Z,50.5
2022-09-01T17:11:54.196Z,49.8
2022-09-01T17:17:12.533Z,50.9
2022-09-01T17:22:30.742Z,51
2022-09-01T17:27:49.217Z,50.1
2022-09-01T17:33:19.027Z,50.4
2022-09-01T17:38:37.457Z,50.5
2022-09-01T17:43:55.959Z,50.6
2022-09-01T17:49:14.716Z,51.3
2022-09-01T17:54:33.464Z,50.9
2022-09-01T17:59:51.947Z,51.1
2022-09-01T18:05:10.270Z,50.5
2022-09-01T18:10:28.707Z,50.2
2022-09-01T18:15:59.923Z,50.9
2022-09-01T18:21:18.555Z,50.6
2022-09-01T18:26:37.205Z,50.7
2022-09-01T18:31:55.847Z,50
2022-09-01T18:37:14.229Z,50.4
2022-09-01T18:42:34.480Z,49.5
2022-09-01T18:47:53.412Z,49.9
2022-09-01T18:53:12.087Z,49.7
2022-09-01T18:58:30.799Z,48.4
2022-09-01T19:03:49.471Z,48.9
2022-09-01T19:09:08.316Z,48.6
2022-09-01T19:14:26.788Z,49.3
2022-09-01T19:19:45.765Z,48.5
2022-09-01T19:25:04.398Z,49.6
2022-09-01T19:30:28.415Z,49.2
2022-09-01T19:35:46.862Z,49.2
2022-09-01T19:41:05.628Z,49.7
2022-09-01T19:46:24.391Z,48.7
2022-09-01T19:51:42.929Z,50.2
2022-09-01T19:57:03.905Z,50
2022-09-01T20:02:22.559Z,50.1
2022-09-01T20:07:42.134Z,49.9
2022-09-01T20:13:01.093Z,50.1
2022-09-01T20:18:19.402Z,50.8
2022-09-01T20:23:37.603Z,49.5
2022-09-01T20:28:56.282Z,50.1
2022-09-01T20:34:15.247Z,49.3
2022-09-01T20:39:34.006Z,50.2
2022-09-01T20:44:52.767Z,50
2022-09-01T20:50:11.245Z,49.7
2022-09-01T20:55:29.726Z,49.1
2022-09-01T21:00:48.209Z,49.3
2022-09-01T21:06:06.403Z,49.7
2022-09-01T21:11:27.825Z,50.7
2022-09-01T21:16:46.455Z,49.7
2022-09-01T21:22:04.961Z,50.2
2022-09-01T21:27:23.988Z,49.3
2022-09-01T21:32:42.189Z,50.4
2022-09-01T21:38:00.373Z,49.5
2022-09-01T21:43:18.380Z,49.7
2022-09-01T21:48:37.089Z,50.6
2022-09-01T21:53:56.076Z,50.8
2022-09-01T21:59:14.287Z,49.6
2022-09-01T22:04:32.769Z,50.6
2022-09-01T22:09:51.245Z,50.1
2022-09-01T22:15:09.746Z,49.8
2022-09-01T22:20:28.219Z,50
2022-09-01T22:25:46.425Z,50.6
2022-09-01T22:31:04.701Z,50.5
2022-09-01T22:36:22.639Z,50.1
2022-09-01T22:41:41.129Z,50.6
2022-09-01T22:46:59.893Z,50.4
2022-09-01T22:52:18.296Z,49.8
2022-09-01T22:57:36.817Z,50.7
2022-09-01T23:02:55.012Z,50.3
2022-09-01T23:08:13.776Z,51.2
2022-09-01T23:13:34.796Z,51.4
2022-09-01T23:18:53.277Z,51
2022-09-01T23:24:15.251Z,51.6
2022-09-01T23:29:34.007Z,50.6
2022-09-01T23:34:52.222Z,51
2022-09-01T23:40:10.706Z,50.5
2022-09-01T23:45:36.515Z,52.1
2022-09-01T23:50:55.311Z,51.6
2022-09-01T23:56:14.071Z,51.7
